createdAt,value
2023-05-01T00:01:44.589Z,9.17
2023-05-01T00:04:15.708Z,9.21
2023-05-01T00:06:46.678Z,9.23
2023-05-01T00:09:18.440Z,9.24
2023-05-01T00:11:49.068Z,9.25
2023-05-01T00:14:19.806Z,9.18
2023-05-01T00:16:50.854Z,9.09
2023-05-01T00:19:21.729Z,9.08
2023-05-01T00:21:53.157Z,9.00
2023-05-01T00:24:24.210Z,8.92
2023-05-01T00:26:54.840Z,8.88
2023-05-01T00:29:25.483Z,8.83
2023-05-01T00:31:56.858Z,8.83
2023-05-01T00:34:27.745Z,8.80
2023-05-01T00:36:58.878Z,8.49
2023-05-01T00:39:29.600Z,8.07
2023-05-01T00:42:00.418Z,7.86
2023-05-01T00:44:31.385Z,7.74
2023-05-01T00:47:02.441Z,7.59
2023-05-01T00:49:33.048Z,7.37
2023-05-01T00:52:03.780Z,7.23
2023-05-01T00:54:34.707Z,7.20
2023-05-01T00:57:06.879Z,7.13
2023-05-01T00:59:39.500Z,6.98
2023-05-01T01:02:11.995Z,6.89
2023-05-01T01:04:44.037Z,6.75
2023-05-01T01:07:21.834Z,6.69
2023-05-01T01:10:05.347Z,6.73
2023-05-01T01:12:48.037Z,6.68
2023-05-01T01:15:25.379Z,6.69
2023-05-01T01:18:05.326Z,6.78
2023-05-01T01:20:42.410Z,6.94
2023-05-01T01:23:35.809Z,6.96
2023-05-01T01:26:23.000Z,7.03
2023-05-01T01:29:22.911Z,7.13
2023-05-01T01:32:05.688Z,7.20
2023-05-01T01:34:41.805Z,7.13
2023-05-01T01:37:18.675Z,7.04
2023-05-01T01:39:54.832Z,7.01
2023-05-01T01:42:37.934Z,7.04
2023-05-01T01:45:16.532Z,7.06
2023-05-01T01:47:49.450Z,7.06
2023-05-01T01:50:23.722Z,6.90
2023-05-01T01:52:55.588Z,6.68
2023-05-01T01:55:31.457Z,6.44
2023-05-01T01:58:04.074Z,6.18
2023-05-01T02:00:36.808Z,6.00
2023-05-01T02:03:06.789Z,5.94
2023-05-01T02:05:39.977Z,5.97
2023-05-01T02:08:12.640Z,6.00
2023-05-01T02:10:45.310Z,6.11
2023-05-01T02:13:17.431Z,6.21
2023-05-01T02:15:49.347Z,6.32
2023-05-01T02:18:21.886Z,6.37
2023-05-01T02:20:54.208Z,6.41
2023-05-01T02:23:26.180Z,6.48
2023-05-01T02:26:00.429Z,6.52
2023-05-01T02:28:33.252Z,6.60
2023-05-01T02:31:02.334Z,6.75
2023-05-01T02:33:33.034Z,6.77
2023-05-01T02:36:05.232Z,6.76
2023-05-01T02:38:35.420Z,6.83
2023-05-01T02:41:07.666Z,6.90
2023-05-01T02:43:39.846Z,6.90
2023-05-01T02:46:11.504Z,6.75
2023-05-01T02:48:43.525Z,6.52
2023-05-01T02:51:15.793Z,6.35
2023-05-01T02:53:47.052Z,6.09
2023-05-01T02:56:21.982Z,5.95
2023-05-01T02:58:53.366Z,5.91
2023-05-01T03:01:24.842Z,5.84
2023-05-01T03:03:55.674Z,5.70
2023-05-01T03:06:29.176Z,5.60
2023-05-01T03:08:59.983Z,5.55
2023-05-01T03:11:30.687Z,5.57
2023-05-01T03:14:01.438Z,5.64
2023-05-01T03:16:32.404Z,5.60
2023-05-01T03:19:03.294Z,5.61
2023-05-01T03:21:34.459Z,5.47
2023-05-01T03:24:05.354Z,5.43
2023-05-01T03:26:36.166Z,5.38
2023-05-01T03:29:06.836Z,5.29
2023-05-01T03:31:38.315Z,5.20
2023-05-01T03:34:10.581Z,5.19
2023-05-01T03:36:41.362Z,5.11
2023-05-01T03:39:12.558Z,4.98
2023-05-01T03:42:18.765Z,5.04
2023-05-01T03:44:50.096Z,5.26
2023-05-01T03:47:21.409Z,5.53
2023-05-01T03:49:52.069Z,5.54
2023-05-01T03:52:22.843Z,5.48
2023-05-01T03:54:54.369Z,5.38
2023-05-01T03:57:28.865Z,5.27
2023-05-01T04:00:01.294Z,5.23
2023-05-01T04:02:34.330Z,5.25
2023-05-01T04:05:05.566Z,5.54
2023-05-01T04:07:36.761Z,5.88
2023-05-01T04:10:09.877Z,6.17
2023-05-01T04:12:42.837Z,6.40
2023-05-01T04:15:15.558Z,6.55
2023-05-01T04:17:47.021Z,6.64
2023-05-01T04:20:19.391Z,6.80
2023-05-01T04:22:52.012Z,6.96
2023-05-01T04:25:23.192Z,7.08
2023-05-01T04:27:55.426Z,7.16
2023-05-01T04:30:26.115Z,7.17
2023-05-01T04:32:57.581Z,7.08
2023-05-01T04:35:28.633Z,7.13
2023-05-01T04:37:59.598Z,7.16
2023-05-01T04:40:30.357Z,7.29
2023-05-01T04:43:02.494Z,7.52
2023-05-01T04:45:33.552Z,7.77
2023-05-01T04:48:04.267Z,8.02
2023-05-01T04:50:35.053Z,8.12
2023-05-01T04:53:05.850Z,8.25
2023-05-01T04:55:36.838Z,8.38
2023-05-01T04:58:15.082Z,8.45
2023-05-01T05:00:46.671Z,8.61
2023-05-01T05:03:23.377Z,8.79
2023-05-01T05:05:54.147Z,9.03
2023-05-01T05:08:25.185Z,9.33
2023-05-01T05:11:01.733Z,9.72
2023-05-01T05:13:49.896Z,10.29
2023-05-01T05:16:20.754Z,10.81
2023-05-01T05:18:51.462Z,11.41
2023-05-01T05:21:22.343Z,11.71
2023-05-01T05:23:56.322Z,12.09
2023-05-01T05:26:27.222Z,12.46
2023-05-01T05:28:59.431Z,12.80
2023-05-01T05:31:30.051Z,13.09
2023-05-01T05:34:00.787Z,13.33
2023-05-01T05:36:31.532Z,13.34
2023-05-01T05:39:03.565Z,13.39
2023-05-01T05:41:32.981Z,13.50
2023-05-01T05:44:04.688Z,13.65
2023-05-01T05:46:35.573Z,13.74
2023-05-01T05:49:06.533Z,13.79
2023-05-01T05:51:37.306Z,13.91
2023-05-01T05:54:08.813Z,14.09
2023-05-01T05:56:39.963Z,14.31
2023-05-01T05:59:10.809Z,14.50
2023-05-01T06:01:42.716Z,14.61
2023-05-01T06:04:14.991Z,14.63
2023-05-01T06:06:46.134Z,14.57
2023-05-01T06:09:19.120Z,14.65
2023-05-01T06:11:48.957Z,14.65
2023-05-01T06:14:20.123Z,14.80
2023-05-01T06:16:50.911Z,15.10
2023-05-01T06:19:21.692Z,15.43
2023-05-01T06:21:55.420Z,15.61
2023-05-01T06:24:27.425Z,15.78
2023-05-01T06:27:01.706Z,15.95
2023-05-01T06:29:32.659Z,16.04
2023-05-01T06:32:04.228Z,16.13
2023-05-01T06:34:35.194Z,16.21
2023-05-01T06:37:07.747Z,16.22
2023-05-01T06:39:38.451Z,16.21
2023-05-01T06:42:11.884Z,16.26
2023-05-01T06:44:43.414Z,16.37
2023-05-01T06:47:14.394Z,16.48
2023-05-01T06:49:45.378Z,16.57
2023-05-01T06:52:15.989Z,16.72
2023-05-01T06:54:46.751Z,16.90
2023-05-01T06:57:17.692Z,17.10
2023-05-01T06:59:48.922Z,17.31
2023-05-01T07:02:19.619Z,17.51
2023-05-01T07:04:50.368Z,17.69
2023-05-01T07:07:21.943Z,17.83
2023-05-01T07:09:52.763Z,17.96
2023-05-01T07:12:23.768Z,18.06
2023-05-01T07:14:54.645Z,18.20
2023-05-01T07:17:25.457Z,18.35
2023-05-01T07:19:56.300Z,18.48
2023-05-01T07:22:28.940Z,18.64
2023-05-01T07:25:01.206Z,18.64
2023-05-01T07:27:32.000Z,18.63
2023-05-01T07:30:02.773Z,18.62
2023-05-01T07:32:33.808Z,18.59
2023-05-01T07:35:05.163Z,18.48
2023-05-01T07:37:35.852Z,18.35
2023-05-01T07:40:08.469Z,18.22
2023-05-01T07:42:39.123Z,18.10
2023-05-01T07:45:11.876Z,18.02
2023-05-01T07:47:42.955Z,17.86
2023-05-01T07:50:14.478Z,17.80
2023-05-01T07:52:45.490Z,17.81
2023-05-01T07:55:19.207Z,17.82
2023-05-01T07:57:49.963Z,17.88
2023-05-01T08:00:22.172Z,18.03
2023-05-01T08:02:54.292Z,18.23
2023-05-01T08:05:25.111Z,18.42
2023-05-01T08:07:55.841Z,18.65
2023-05-01T08:10:27.420Z,18.79
2023-05-01T08:12:58.173Z,18.82
2023-05-01T08:15:28.884Z,18.86
2023-05-01T08:17:59.627Z,18.89
2023-05-01T08:20:30.650Z,18.82
2023-05-01T08:23:01.248Z,18.79
2023-05-01T08:25:32.420Z,18.77
2023-05-01T08:28:03.436Z,18.71
2023-05-01T08:30:34.048Z,18.73
2023-05-01T08:33:04.992Z,18.82
2023-05-01T08:35:35.868Z,18.96
2023-05-01T08:38:06.472Z,19.11
2023-05-01T08:40:40.313Z,19.16
2023-05-01T08:43:13.219Z,19.14
2023-05-01T08:45:45.655Z,19.21
2023-05-01T08:48:19.394Z,19.21
2023-05-01T08:50:50.755Z,19.12
2023-05-01T08:53:23.199Z,19.02
2023-05-01T08:55:55.108Z,18.95
2023-05-01T08:58:28.088Z,18.96
2023-05-01T09:01:01.260Z,19.01
2023-05-01T09:03:34.579Z,19.11
2023-05-01T09:06:06.003Z,19.21
2023-05-01T09:08:36.677Z,19.30
2023-05-01T09:11:07.719Z,19.34
2023-05-01T09:13:38.845Z,19.39
2023-05-01T09:16:09.966Z,19.46
2023-05-01T09:18:42.140Z,19.48
2023-05-01T09:21:12.339Z,19.43
2023-05-01T09:23:41.645Z,19.44
2023-05-01T09:26:12.575Z,19.37
2023-05-01T09:28:44.859Z,19.40
2023-05-01T09:31:28.604Z,19.51
2023-05-01T09:34:01.606Z,19.55
2023-05-01T09:36:34.117Z,19.57
2023-05-01T09:39:05.153Z,19.68
2023-05-01T09:41:36.701Z,19.81
2023-05-01T09:44:19.226Z,19.88
2023-05-01T09:46:50.860Z,19.99
2023-05-01T09:49:21.641Z,20.02
2023-05-01T09:51:52.368Z,20.07
2023-05-01T09:54:23.292Z,20.03
2023-05-01T09:56:53.849Z,19.95
2023-05-01T09:59:25.241Z,19.87
2023-05-01T10:01:56.417Z,19.79
2023-05-01T10:04:34.079Z,19.76
2023-05-01T10:07:14.344Z,19.87
2023-05-01T10:09:45.109Z,19.98
2023-05-01T10:12:26.306Z,20.03
2023-05-01T10:14:58.621Z,20.04
2023-05-01T10:17:31.175Z,20.06
2023-05-01T10:20:01.947Z,20.06
2023-05-01T10:22:32.697Z,20.09
2023-05-01T10:25:04.536Z,20.05
2023-05-01T10:27:36.248Z,19.84
2023-05-01T10:30:09.153Z,19.75
2023-05-01T10:32:42.074Z,19.72
2023-05-01T10:35:16.223Z,19.59
2023-05-01T10:37:50.814Z,19.40
2023-05-01T10:40:49.959Z,19.38
2023-05-01T10:43:26.014Z,19.34
2023-05-01T10:46:19.255Z,19.24
2023-05-01T10:49:02.573Z,19.18
2023-05-01T10:51:33.415Z,19.23
2023-05-01T10:54:28.245Z,19.26
2023-05-01T10:57:01.384Z,19.30
2023-05-01T11:00:09.413Z,19.30
2023-05-01T11:02:40.122Z,19.26
2023-05-01T11:05:11.277Z,19.21
2023-05-01T11:07:42.277Z,19.12
2023-05-01T11:13:10.807Z,19.04
2023-05-01T11:15:41.568Z,19.06
2023-05-01T11:18:13.597Z,19.08
2023-05-01T11:20:52.120Z,19.10
2023-05-01T11:23:27.486Z,19.09
2023-05-01T11:26:08.102Z,18.99
2023-05-01T11:28:42.430Z,19.08
2023-05-01T11:31:17.994Z,19.18
2023-05-01T11:33:48.994Z,19.26
2023-05-01T11:36:19.894Z,19.34
2023-05-01T11:38:56.745Z,19.43
2023-05-01T11:41:28.072Z,19.48
2023-05-01T11:44:00.705Z,19.52
2023-05-01T11:46:32.719Z,19.52
2023-05-01T11:49:04.606Z,19.55
2023-05-01T11:51:35.475Z,19.55
2023-05-01T11:54:10.568Z,19.53
2023-05-01T11:56:42.790Z,19.51
2023-05-01T11:59:16.104Z,19.43
2023-05-01T12:01:49.233Z,19.36
2023-05-01T12:04:31.901Z,19.27
2023-05-01T12:07:03.579Z,19.15
2023-05-01T12:09:35.167Z,19.15
2023-05-01T12:12:07.053Z,19.10
2023-05-01T12:14:37.871Z,19.17
2023-05-01T12:17:09.889Z,19.29
2023-05-01T12:19:49.992Z,19.44
2023-05-01T12:22:20.656Z,19.55
2023-05-01T12:24:55.247Z,19.60
2023-05-01T12:27:26.017Z,19.57
2023-05-01T12:29:57.423Z,19.49
2023-05-01T12:32:34.648Z,19.41
2023-05-01T12:35:15.587Z,19.48
2023-05-01T12:37:46.939Z,19.49
2023-05-01T12:40:19.038Z,19.51
2023-05-01T12:42:55.014Z,19.54
2023-05-01T12:45:26.167Z,19.54
2023-05-01T12:47:57.161Z,19.56
2023-05-01T12:50:28.012Z,19.58
2023-05-01T12:53:02.820Z,19.56
2023-05-01T12:55:36.048Z,19.54
2023-05-01T12:58:06.688Z,19.53
2023-05-01T13:00:47.142Z,19.54
2023-05-01T13:03:23.703Z,19.52
2023-05-01T13:05:57.515Z,19.50
2023-05-01T13:08:33.436Z,19.46
2023-05-01T13:11:13.187Z,19.42
2023-05-01T13:13:44.860Z,19.41
2023-05-01T13:16:17.088Z,19.39
2023-05-01T13:18:49.839Z,19.36
2023-05-01T13:21:23.370Z,19.34
2023-05-01T13:23:57.616Z,19.31
2023-05-01T13:26:32.940Z,19.32
2023-05-01T13:29:05.761Z,19.37
2023-05-01T13:31:37.555Z,19.35
2023-05-01T13:34:08.373Z,19.32
2023-05-01T13:36:41.176Z,19.34
2023-05-01T13:39:12.329Z,19.36
2023-05-01T13:41:45.188Z,19.36
2023-05-01T13:44:17.147Z,19.37
2023-05-01T13:46:49.445Z,19.37
2023-05-01T13:49:23.933Z,19.37
2023-05-01T13:51:55.610Z,19.33
2023-05-01T13:54:27.231Z,19.28
2023-05-01T13:56:58.278Z,19.23
2023-05-01T13:59:38.265Z,19.15
2023-05-01T14:02:21.823Z,19.09
2023-05-01T14:04:53.109Z,19.06
2023-05-01T14:07:25.766Z,19.05
2023-05-01T14:09:59.537Z,19.04
2023-05-01T14:12:31.861Z,19.03
2023-05-01T14:15:03.256Z,19.00
2023-05-01T14:17:37.561Z,18.99
2023-05-01T14:20:10.388Z,18.97
2023-05-01T14:22:45.979Z,18.98
2023-05-01T14:25:28.472Z,18.98
2023-05-01T14:28:01.059Z,19.01
2023-05-01T14:30:34.193Z,19.05
2023-05-01T14:33:07.378Z,19.07
2023-05-01T14:35:38.787Z,19.08
2023-05-01T14:38:13.793Z,19.08
2023-05-01T14:40:45.458Z,19.05
2023-05-01T14:43:20.444Z,19.03
2023-05-01T14:45:51.291Z,18.99
2023-05-01T14:48:25.457Z,18.98
2023-05-01T14:50:58.110Z,18.94
2023-05-01T14:53:32.738Z,18.92
2023-05-01T14:56:03.454Z,18.89
2023-05-01T14:58:34.175Z,18.86
2023-05-01T15:01:05.186Z,18.84
2023-05-01T15:03:40.922Z,18.83
2023-05-01T15:06:12.190Z,18.83
2023-05-01T15:08:43.408Z,18.82
2023-05-01T15:11:18.022Z,18.81
2023-05-01T15:13:50.573Z,18.82
2023-05-01T15:16:21.362Z,18.82
2023-05-01T15:18:52.195Z,18.82
2023-05-01T15:21:22.898Z,18.81
2023-05-01T15:23:53.632Z,18.80
2023-05-01T15:26:24.262Z,18.79
2023-05-01T15:28:55.287Z,18.78
2023-05-01T15:31:26.046Z,18.77
2023-05-01T15:33:57.475Z,18.76
2023-05-01T15:36:28.085Z,18.76
2023-05-01T15:38:58.757Z,18.76
2023-05-01T15:41:29.564Z,18.73
2023-05-01T15:44:00.348Z,18.73
2023-05-01T15:46:31.513Z,18.71
2023-05-01T15:49:02.423Z,18.70
2023-05-01T15:51:34.423Z,18.69
2023-05-01T15:54:05.802Z,18.66
2023-05-01T15:56:38.770Z,18.64
2023-05-01T15:59:09.932Z,18.62
2023-05-01T16:01:41.028Z,18.60
2023-05-01T16:04:12.083Z,18.58
2023-05-01T16:06:43.152Z,18.56
2023-05-01T16:09:14.984Z,18.55
2023-05-01T16:11:45.950Z,18.54
2023-05-01T16:14:18.688Z,18.52
2023-05-01T16:16:49.405Z,18.49
2023-05-01T16:19:20.680Z,18.47
2023-05-01T16:21:51.345Z,18.44
2023-05-01T16:24:22.630Z,18.42
2023-05-01T16:26:53.225Z,18.38
2023-05-01T16:29:23.989Z,18.34
2023-05-01T16:31:54.723Z,18.31
2023-05-01T16:34:28.066Z,18.27
2023-05-01T16:36:58.722Z,18.23
2023-05-01T16:39:29.360Z,18.19
2023-05-01T16:41:59.984Z,18.16
2023-05-01T16:44:30.676Z,18.13
2023-05-01T16:47:04.064Z,18.10
2023-05-01T16:49:34.978Z,18.06
2023-05-01T16:52:05.878Z,18.03
2023-05-01T16:54:36.679Z,17.99
2023-05-01T16:57:07.467Z,17.95
2023-05-01T16:59:38.570Z,17.90
2023-05-01T17:02:09.511Z,17.87
2023-05-01T17:04:40.399Z,17.84
2023-05-01T17:07:11.179Z,17.81
2023-05-01T17:09:42.026Z,17.78
2023-05-01T17:12:12.694Z,17.75
2023-05-01T17:14:43.574Z,17.72
2023-05-01T17:17:14.455Z,17.68
2023-05-01T17:19:45.116Z,17.65
2023-05-01T17:22:16.064Z,17.61
2023-05-01T17:24:47.359Z,17.58
2023-05-01T17:27:18.056Z,17.54
2023-05-01T17:29:49.038Z,17.48
2023-05-01T17:32:35.790Z,17.46
2023-05-01T17:35:08.916Z,17.42
2023-05-01T17:37:40.602Z,17.37
2023-05-01T17:40:13.192Z,17.33
2023-05-01T17:42:44.538Z,17.29
2023-05-01T17:45:15.605Z,17.25
2023-05-01T17:47:46.797Z,17.21
2023-05-01T17:50:17.588Z,17.16
2023-05-01T17:52:48.381Z,17.11
2023-05-01T17:55:19.054Z,17.06
2023-05-01T17:57:49.819Z,17.01
2023-05-01T18:00:22.409Z,16.97
2023-05-01T18:02:53.283Z,16.92
2023-05-01T18:05:24.198Z,16.88
2023-05-01T18:07:54.881Z,16.84
2023-05-01T18:10:30.161Z,16.79
2023-05-01T18:13:00.794Z,16.75
2023-05-01T18:15:31.515Z,16.70
2023-05-01T18:18:02.647Z,16.65
2023-05-01T18:20:33.729Z,16.62
2023-05-01T18:23:04.404Z,16.58
2023-05-01T18:25:35.698Z,16.55
2023-05-01T18:28:06.553Z,16.51
2023-05-01T18:30:37.575Z,16.49
2023-05-01T18:33:08.510Z,16.46
2023-05-01T18:35:42.369Z,16.44
2023-05-01T18:38:13.280Z,16.41
2023-05-01T18:40:43.939Z,16.38
2023-05-01T18:43:14.522Z,16.35
2023-05-01T18:45:45.143Z,16.33
2023-05-01T18:48:16.014Z,16.30
2023-05-01T18:51:00.769Z,16.28
2023-05-01T18:53:37.846Z,16.25
2023-05-01T18:56:09.530Z,16.23
2023-05-01T18:58:41.274Z,16.22
2023-05-01T19:01:11.882Z,16.20
2023-05-01T19:03:42.660Z,16.17
2023-05-01T19:06:13.246Z,16.15
2023-05-01T19:08:44.116Z,16.12
2023-05-01T19:11:14.715Z,16.11
2023-05-01T19:13:45.351Z,16.08
2023-05-01T19:16:16.108Z,16.05
2023-05-01T19:18:48.496Z,16.03
2023-05-01T19:21:19.573Z,16.01
2023-05-01T19:23:50.225Z,16.00
2023-05-01T19:26:21.008Z,15.99
2023-05-01T19:28:51.711Z,16.02
2023-05-01T19:31:22.477Z,16.07
2023-05-01T19:33:55.078Z,16.12
2023-05-01T19:36:26.733Z,16.16
2023-05-01T19:38:57.512Z,16.19
2023-05-01T19:41:28.077Z,16.19
2023-05-01T19:43:58.794Z,16.22
2023-05-01T19:46:29.519Z,16.27
2023-05-01T19:49:00.479Z,16.29
2023-05-01T19:51:31.464Z,16.29
2023-05-01T19:54:04.457Z,16.24
2023-05-01T19:56:35.272Z,16.20
2023-05-01T19:59:05.873Z,16.16
2023-05-01T20:01:38.823Z,16.11
2023-05-01T20:04:09.710Z,16.08
2023-05-01T20:06:40.489Z,16.04
2023-05-01T20:09:11.109Z,16.00
2023-05-01T20:11:41.830Z,15.95
2023-05-01T20:14:12.557Z,15.86
2023-05-01T20:16:43.496Z,15.79
2023-05-01T20:19:16.381Z,15.72
2023-05-01T20:21:47.254Z,15.65
2023-05-01T20:24:17.854Z,15.61
2023-05-01T20:26:50.215Z,15.58
2023-05-01T20:29:19.338Z,15.54
2023-05-01T20:31:51.749Z,15.49
2023-05-01T20:34:23.068Z,15.42
2023-05-01T20:36:53.697Z,15.35
2023-05-01T20:39:24.279Z,15.25
2023-05-01T20:41:55.650Z,15.21
2023-05-01T20:44:26.513Z,15.21
2023-05-01T20:46:57.324Z,15.21
2023-05-01T20:49:28.655Z,15.20
2023-05-01T20:51:59.318Z,15.18
2023-05-01T20:54:32.320Z,15.22
2023-05-01T20:57:03.944Z,15.18
2023-05-01T20:59:35.505Z,15.08
2023-05-01T21:02:08.050Z,14.99
2023-05-01T21:04:39.213Z,14.93
2023-05-01T21:07:10.021Z,14.88
2023-05-01T21:09:46.153Z,14.88
2023-05-01T21:12:17.138Z,14.91
2023-05-01T21:14:47.940Z,14.87
2023-05-01T21:17:20.828Z,14.81
2023-05-01T21:19:51.551Z,14.74
2023-05-01T21:22:24.104Z,14.70
2023-05-01T21:24:56.685Z,14.70
2023-05-01T21:27:28.284Z,14.79
2023-05-01T21:30:00.993Z,14.80
2023-05-01T21:32:33.999Z,14.80
2023-05-01T21:35:05.489Z,14.83
2023-05-01T21:37:36.613Z,14.84
2023-05-01T21:40:11.321Z,14.84
2023-05-01T21:42:42.187Z,14.83
2023-05-01T21:45:15.829Z,14.82
2023-05-01T21:47:48.903Z,14.85
2023-05-01T21:50:21.259Z,14.91
2023-05-01T21:52:51.165Z,14.94
2023-05-01T21:55:23.825Z,14.96
2023-05-01T21:57:54.896Z,14.95
2023-05-01T22:00:25.810Z,14.93
2023-05-01T22:02:56.900Z,14.91
2023-05-01T22:05:31.062Z,14.91
2023-05-01T22:08:01.858Z,14.92
2023-05-01T22:10:32.784Z,14.91
2023-05-01T22:13:06.432Z,14.86
2023-05-01T22:15:37.271Z,14.85
2023-05-01T22:18:08.542Z,14.86
2023-05-01T22:20:39.195Z,14.84
2023-05-01T22:23:09.835Z,14.79
2023-05-01T22:25:40.490Z,14.77
2023-05-01T22:28:11.270Z,14.73
2023-05-01T22:30:44.294Z,14.69
2023-05-01T22:33:14.952Z,14.62
2023-05-01T22:35:45.632Z,14.60
2023-05-01T22:38:16.298Z,14.57
2023-05-01T22:40:46.924Z,14.51
2023-05-01T22:43:17.591Z,14.48
2023-05-01T22:45:48.233Z,14.44
2023-05-01T22:48:19.102Z,14.44
2023-05-01T22:50:49.971Z,14.48
2023-05-01T22:53:20.631Z,14.51
2023-05-01T22:55:51.466Z,14.51
2023-05-01T22:58:22.310Z,14.50
2023-05-01T23:00:53.113Z,14.50
2023-05-01T23:03:23.887Z,14.51
2023-05-01T23:05:54.819Z,14.54
2023-05-01T23:08:25.753Z,14.57
2023-05-01T23:10:56.711Z,14.60
2023-05-01T23:13:28.141Z,14.56
2023-05-01T23:15:59.759Z,14.48
2023-05-01T23:18:33.872Z,14.44
2023-05-01T23:21:05.011Z,14.42
2023-05-01T23:23:38.423Z,14.44
2023-05-01T23:26:09.141Z,14.47
2023-05-01T23:28:43.360Z,14.50
2023-05-01T23:31:18.921Z,14.48
2023-05-01T23:33:49.516Z,14.45
2023-05-01T23:36:21.256Z,14.46
2023-05-01T23:38:51.918Z,14.49
2023-05-01T23:41:22.870Z,14.51
2023-05-01T23:43:53.495Z,14.51
2023-05-01T23:46:24.492Z,14.50
2023-05-01T23:48:56.605Z,14.53
2023-05-01T23:51:27.842Z,14.51
2023-05-01T23:53:59.076Z,14.47
2023-05-01T23:56:29.893Z,14.47
2023-05-01T23:59:00.700Z,14.44
